sensor_id;sensor_type;location;lat;lon;timestamp;P1;durP1;ratioP1;P2;durP2;ratioP2
48006;SDS011;33771;48.180;11.400;2022-09-21T00:00:46;5.37;;;3.03;;
48006;SDS011;33771;48.180;11.400;2022-09-21T00:03:13;4.63;;;2.73;;
48006;SDS011;33771;48.180;11.400;2022-09-21T00:05:39;5.97;;;2.77;;
48006;SDS011;33771;48.180;11.400;2022-09-21T00:08:05;4.23;;;2.57;;
48006;SDS011;33771;48.180;11.400;2022-09-21T00:10:32;5.70;;;3.00;;
48006;SDS011;33771;48.180;11.400;2022-09-21T00:12:58;6.10;;;3.13;;
48006;SDS011;33771;48.180;11.400;2022-09-21T00:15:26;5.67;;;2.73;;
48006;SDS011;33771;48.180;11.400;2022-09-21T00:17:54;6.20;;;2.67;;
48006;SDS011;33771;48.180;11.400;2022-09-21T00:20:20;8.00;;;3.00;;
48006;SDS011;33771;48.180;11.400;2022-09-21T00:22:47;6.30;;;2.47;;
48006;SDS011;33771;48.180;11.400;2022-09-21T00:25:13;6.97;;;2.70;;
48006;SDS011;33771;48.180;11.400;2022-09-21T00:27:38;9.53;;;2.77;;
48006;SDS011;33771;48.180;11.400;2022-09-21T00:30:05;5.57;;;2.40;;
48006;SDS011;33771;48.180;11.400;2022-09-21T00:32:32;4.03;;;2.40;;
48006;SDS011;33771;48.180;11.400;2022-09-21T00:35:00;6.07;;;3.47;;
48006;SDS011;33771;48.180;11.400;2022-09-21T00:37:27;10.13;;;4.40;;
48006;SDS011;33771;48.180;11.400;2022-09-21T00:39:53;5.00;;;2.90;;
48006;SDS011;33771;48.180;11.400;2022-09-21T00:42:24;9.00;;;3.70;;
48006;SDS011;33771;48.180;11.400;2022-09-21T00:44:52;5.93;;;3.00;;
48006;SDS011;33771;48.180;11.400;2022-09-21T00:49:47;5.33;;;2.97;;
48006;SDS011;33771;48.180;11.400;2022-09-21T00:52:16;7.53;;;2.73;;
48006;SDS011;33771;48.180;11.400;2022-09-21T00:54:51;6.17;;;2.70;;
48006;SDS011;33771;48.180;11.400;2022-09-21T00:57:19;4.63;;;2.73;;
48006;SDS011;33771;48.180;11.400;2022-09-21T00:59:48;7.07;;;2.83;;
48006;SDS011;33771;48.180;11.400;2022-09-21T01:02:16;8.87;;;2.77;;
48006;SDS011;33771;48.180;11.400;2022-09-21T01:04:43;6.07;;;3.03;;
48006;SDS011;33771;48.180;11.400;2022-09-21T01:07:10;5.70;;;2.50;;
48006;SDS011;33771;48.180;11.400;2022-09-21T01:09:42;6.13;;;2.50;;
48006;SDS011;33771;48.180;11.400;2022-09-21T01:17:59;6.30;;;3.07;;
48006;SDS011;33771;48.180;11.400;2022-09-21T01:23:30;6.20;;;3.07;;
48006;SDS011;33771;48.180;11.400;2022-09-21T01:31:38;5.70;;;2.63;;
48006;SDS011;33771;48.180;11.400;2022-09-21T01:34:30;4.60;;;2.50;;
48006;SDS011;33771;48.180;11.400;2022-09-21T01:37:05;7.40;;;2.67;;
48006;SDS011;33771;48.180;11.400;2022-09-21T01:39:35;6.27;;;2.67;;
48006;SDS011;33771;48.180;11.400;2022-09-21T01:42:04;5.27;;;2.80;;
48006;SDS011;33771;48.180;11.400;2022-09-21T01:44:31;6.43;;;2.60;;
48006;SDS011;33771;48.180;11.400;2022-09-21T01:47:00;4.73;;;2.40;;
48006;SDS011;33771;48.180;11.400;2022-09-21T01:49:47;7.17;;;2.60;;
48006;SDS011;33771;48.180;11.400;2022-09-21T01:54:51;5.80;;;2.60;;
48006;SDS011;33771;48.180;11.400;2022-09-21T01:57:25;7.33;;;3.27;;
48006;SDS011;33771;48.180;11.400;2022-09-21T02:00:01;8.20;;;3.53;;
48006;SDS011;33771;48.180;11.400;2022-09-21T02:02:48;8.50;;;2.93;;
48006;SDS011;33771;48.180;11.400;2022-09-21T02:05:18;3.53;;;2.30;;
48006;SDS011;33771;48.180;11.400;2022-09-21T02:07:45;5.07;;;2.80;;
48006;SDS011;33771;48.180;11.400;2022-09-21T02:10:16;3.80;;;2.57;;
48006;SDS011;33771;48.180;11.400;2022-09-21T02:12:46;4.83;;;2.20;;
48006;SDS011;33771;48.180;11.400;2022-09-21T02:15:13;5.40;;;2.33;;
48006;SDS011;33771;48.180;11.400;2022-09-21T02:18:01;3.97;;;2.30;;
48006;SDS011;33771;48.180;11.400;2022-09-21T02:20:35;5.83;;;2.67;;
48006;SDS011;33771;48.180;11.400;2022-09-21T02:26:06;3.77;;;2.43;;
48006;SDS011;33771;48.180;11.400;2022-09-21T02:28:38;5.63;;;2.53;;
48006;SDS011;33771;48.180;11.400;2022-09-21T02:31:25;5.37;;;2.40;;
48006;SDS011;33771;48.180;11.400;2022-09-21T02:34:00;5.50;;;2.43;;
48006;SDS011;33771;48.180;11.400;2022-09-21T02:36:53;4.40;;;2.33;;
48006;SDS011;33771;48.180;11.400;2022-09-21T02:39:24;4.47;;;2.60;;
48006;SDS011;33771;48.180;11.400;2022-09-21T02:42:00;5.73;;;2.50;;
48006;SDS011;33771;48.180;11.400;2022-09-21T02:44:54;3.63;;;2.40;;
48006;SDS011;33771;48.180;11.400;2022-09-21T02:47:45;9.85;;;2.83;;
48006;SDS011;33771;48.180;11.400;2022-09-21T02:50:18;7.23;;;2.17;;
48006;SDS011;33771;48.180;11.400;2022-09-21T02:52:50;7.35;;;3.05;;
48006;SDS011;33771;48.180;11.400;2022-09-21T02:55:18;4.23;;;2.47;;
48006;SDS011;33771;48.180;11.400;2022-09-21T02:57:44;3.50;;;2.17;;
48006;SDS011;33771;48.180;11.400;2022-09-21T03:00:11;6.57;;;2.50;;
48006;SDS011;33771;48.180;11.400;2022-09-21T03:02:41;4.03;;;2.40;;
48006;SDS011;33771;48.180;11.400;2022-09-21T03:05:09;6.77;;;2.50;;
48006;SDS011;33771;48.180;11.400;2022-09-21T03:07:37;4.27;;;2.37;;
48006;SDS011;33771;48.180;11.400;2022-09-21T03:10:03;5.67;;;2.80;;
48006;SDS011;33771;48.180;11.400;2022-09-21T03:12:30;6.50;;;2.80;;
48006;SDS011;33771;48.180;11.400;2022-09-21T03:14:56;5.73;;;2.60;;
48006;SDS011;33771;48.180;11.400;2022-09-21T03:17:22;6.27;;;2.50;;
48006;SDS011;33771;48.180;11.400;2022-09-21T03:19:47;9.07;;;2.50;;
48006;SDS011;33771;48.180;11.400;2022-09-21T03:22:13;9.53;;;2.97;;
48006;SDS011;33771;48.180;11.400;2022-09-21T03:24:38;6.70;;;2.90;;
48006;SDS011;33771;48.180;11.400;2022-09-21T03:27:10;5.27;;;2.90;;
48006;SDS011;33771;48.180;11.400;2022-09-21T03:29:44;12.43;;;2.90;;
48006;SDS011;33771;48.180;11.400;2022-09-21T03:32:09;6.13;;;2.67;;
48006;SDS011;33771;48.180;11.400;2022-09-21T03:34:35;4.40;;;2.47;;
48006;SDS011;33771;48.180;11.400;2022-09-21T03:37:01;6.37;;;2.60;;
48006;SDS011;33771;48.180;11.400;2022-09-21T03:39:28;6.63;;;2.70;;
48006;SDS011;33771;48.180;11.400;2022-09-21T03:41:54;5.87;;;2.70;;
48006;SDS011;33771;48.180;11.400;2022-09-21T03:44:21;7.63;;;2.50;;
48006;SDS011;33771;48.180;11.400;2022-09-21T03:46:47;8.70;;;2.67;;
48006;SDS011;33771;48.180;11.400;2022-09-21T03:49:14;4.63;;;2.37;;
48006;SDS011;33771;48.180;11.400;2022-09-21T03:51:40;8.20;;;3.00;;
48006;SDS011;33771;48.180;11.400;2022-09-21T03:54:05;10.30;;;4.00;;
48006;SDS011;33771;48.180;11.400;2022-09-21T03:56:31;8.80;;;4.37;;
48006;SDS011;33771;48.180;11.400;2022-09-21T03:58:57;7.87;;;4.63;;
48006;SDS011;33771;48.180;11.400;2022-09-21T04:01:22;7.97;;;4.00;;
48006;SDS011;33771;48.180;11.400;2022-09-21T04:03:48;5.77;;;3.30;;
48006;SDS011;33771;48.180;11.400;2022-09-21T04:06:13;8.10;;;3.43;;
48006;SDS011;33771;48.180;11.400;2022-09-21T04:08:39;6.87;;;2.77;;
48006;SDS011;33771;48.180;11.400;2022-09-21T04:11:12;6.73;;;3.00;;
48006;SDS011;33771;48.180;11.400;2022-09-21T04:13:39;9.60;;;3.63;;
48006;SDS011;33771;48.180;11.400;2022-09-21T04:16:06;6.47;;;3.03;;
48006;SDS011;33771;48.180;11.400;2022-09-21T04:18:33;4.73;;;2.80;;
48006;SDS011;33771;48.180;11.400;2022-09-21T04:20:59;5.50;;;2.83;;
48006;SDS011;33771;48.180;11.400;2022-09-21T04:23:25;3.83;;;2.60;;
48006;SDS011;33771;48.180;11.400;2022-09-21T04:25:52;3.93;;;2.50;;
48006;SDS011;33771;48.180;11.400;2022-09-21T04:28:19;4.43;;;2.60;;
48006;SDS011;33771;48.180;11.400;2022-09-21T04:30:45;4.63;;;3.00;;
48006;SDS011;33771;48.180;11.400;2022-09-21T04:33:10;7.23;;;2.60;;
48006;SDS011;33771;48.180;11.400;2022-09-21T04:35:36;6.20;;;2.40;;
48006;SDS011;33771;48.180;11.400;2022-09-21T04:38:01;4.03;;;2.70;;
48006;SDS011;33771;48.180;11.400;2022-09-21T04:40:27;5.17;;;2.80;;
48006;SDS011;33771;48.180;11.400;2022-09-21T04:42:53;8.10;;;3.07;;
48006;SDS011;33771;48.180;11.400;2022-09-21T04:45:19;5.73;;;3.00;;
48006;SDS011;33771;48.180;11.400;2022-09-21T04:47:46;7.27;;;2.90;;
48006;SDS011;33771;48.180;11.400;2022-09-21T04:50:12;4.80;;;2.73;;
48006;SDS011;33771;48.180;11.400;2022-09-21T04:52:37;5.10;;;2.73;;
48006;SDS011;33771;48.180;11.400;2022-09-21T04:55:04;7.33;;;3.10;;
48006;SDS011;33771;48.180;11.400;2022-09-21T04:57:30;6.03;;;2.97;;
48006;SDS011;33771;48.180;11.400;2022-09-21T04:59:55;4.97;;;2.90;;
48006;SDS011;33771;48.180;11.400;2022-09-21T05:02:21;4.67;;;2.60;;
48006;SDS011;33771;48.180;11.400;2022-09-21T05:04:46;5.30;;;2.57;;
48006;SDS011;33771;48.180;11.400;2022-09-21T05:07:12;6.60;;;2.90;;
48006;SDS011;33771;48.180;11.400;2022-09-21T05:09:37;5.10;;;2.70;;
48006;SDS011;33771;48.180;11.400;2022-09-21T05:12:22;6.80;;;3.10;;
48006;SDS011;33771;48.180;11.400;2022-09-21T05:14:47;5.63;;;3.03;;
48006;SDS011;33771;48.180;11.400;2022-09-21T05:17:13;8.40;;;2.70;;
48006;SDS011;33771;48.180;11.400;2022-09-21T05:19:39;4.97;;;2.93;;
48006;SDS011;33771;48.180;11.400;2022-09-21T05:22:04;6.87;;;3.00;;
48006;SDS011;33771;48.180;11.400;2022-09-21T05:24:30;5.43;;;2.80;;
48006;SDS011;33771;48.180;11.400;2022-09-21T05:26:56;4.63;;;2.90;;
48006;SDS011;33771;48.180;11.400;2022-09-21T05:29:21;6.67;;;3.80;;
48006;SDS011;33771;48.180;11.400;2022-09-21T05:31:49;10.80;;;4.27;;
48006;SDS011;33771;48.180;11.400;2022-09-21T05:34:20;7.10;;;3.47;;
48006;SDS011;33771;48.180;11.400;2022-09-21T05:37:09;6.97;;;3.47;;
48006;SDS011;33771;48.180;11.400;2022-09-21T05:39:55;7.70;;;3.30;;
48006;SDS011;33771;48.180;11.400;2022-09-21T05:42:21;7.93;;;3.50;;
48006;SDS011;33771;48.180;11.400;2022-09-21T05:44:47;8.53;;;3.50;;
48006;SDS011;33771;48.180;11.400;2022-09-21T05:47:23;7.13;;;3.40;;
48006;SDS011;33771;48.180;11.400;2022-09-21T06:03:41;12.13;;;3.37;;
48006;SDS011;33771;48.180;11.400;2022-09-21T06:06:07;5.77;;;3.83;;
48006;SDS011;33771;48.180;11.400;2022-09-21T06:08:33;6.87;;;4.00;;
48006;SDS011;33771;48.180;11.400;2022-09-21T06:10:59;12.53;;;4.93;;
48006;SDS011;33771;48.180;11.400;2022-09-21T06:13:25;7.17;;;4.60;;
48006;SDS011;33771;48.180;11.400;2022-09-21T06:15:51;7.03;;;4.07;;
48006;SDS011;33771;48.180;11.400;2022-09-21T06:18:16;7.77;;;3.47;;
48006;SDS011;33771;48.180;11.400;2022-09-21T06:20:42;8.90;;;3.37;;
48006;SDS011;33771;48.180;11.400;2022-09-21T06:23:09;5.00;;;3.37;;
48006;SDS011;33771;48.180;11.400;2022-09-21T06:25:36;7.83;;;3.33;;
48006;SDS011;33771;48.180;11.400;2022-09-21T06:30:29;7.83;;;3.47;;
48006;SDS011;33771;48.180;11.400;2022-09-21T06:32:57;5.23;;;3.30;;
48006;SDS011;33771;48.180;11.400;2022-09-21T06:35:24;4.47;;;3.33;;
48006;SDS011;33771;48.180;11.400;2022-09-21T06:37:50;7.90;;;4.00;;
48006;SDS011;33771;48.180;11.400;2022-09-21T06:40:16;7.57;;;3.70;;
48006;SDS011;33771;48.180;11.400;2022-09-21T06:42:41;5.47;;;3.83;;
48006;SDS011;33771;48.180;11.400;2022-09-21T06:45:07;6.33;;;4.00;;
48006;SDS011;33771;48.180;11.400;2022-09-21T06:47:33;7.27;;;4.40;;
48006;SDS011;33771;48.180;11.400;2022-09-21T06:49:58;11.17;;;4.10;;
48006;SDS011;33771;48.180;11.400;2022-09-21T06:52:24;8.87;;;4.43;;
48006;SDS011;33771;48.180;11.400;2022-09-21T06:54:49;6.53;;;3.83;;
48006;SDS011;33771;48.180;11.400;2022-09-21T06:57:15;7.70;;;4.17;;
48006;SDS011;33771;48.180;11.400;2022-09-21T06:59:40;8.53;;;4.77;;
48006;SDS011;33771;48.180;11.400;2022-09-21T07:02:07;5.23;;;3.70;;
48006;SDS011;33771;48.180;11.400;2022-09-21T07:04:33;7.73;;;4.07;;
48006;SDS011;33771;48.180;11.400;2022-09-21T07:06:59;7.63;;;4.20;;
48006;SDS011;33771;48.180;11.400;2022-09-21T07:09:25;8.03;;;4.00;;
48006;SDS011;33771;48.180;11.400;2022-09-21T07:11:50;11.67;;;4.83;;
48006;SDS011;33771;48.180;11.400;2022-09-21T07:14:16;9.83;;;5.30;;
48006;SDS011;33771;48.180;11.400;2022-09-21T07:16:41;8.73;;;4.83;;
48006;SDS011;33771;48.180;11.400;2022-09-21T07:19:07;10.33;;;5.40;;
48006;SDS011;33771;48.180;11.400;2022-09-21T07:21:33;14.87;;;5.00;;
48006;SDS011;33771;48.180;11.400;2022-09-21T07:23:58;11.60;;;4.93;;
48006;SDS011;33771;48.180;11.400;2022-09-21T07:26:24;10.13;;;4.93;;
48006;SDS011;33771;48.180;11.400;2022-09-21T07:28:50;10.27;;;5.50;;
48006;SDS011;33771;48.180;11.400;2022-09-21T07:31:16;10.30;;;5.20;;
48006;SDS011;33771;48.180;11.400;2022-09-21T07:33:42;10.73;;;5.30;;
48006;SDS011;33771;48.180;11.400;2022-09-21T07:36:10;9.23;;;4.80;;
48006;SDS011;33771;48.180;11.400;2022-09-21T07:38:37;10.27;;;5.40;;
48006;SDS011;33771;48.180;11.400;2022-09-21T07:41:03;11.07;;;5.23;;
48006;SDS011;33771;48.180;11.400;2022-09-21T07:43:30;10.70;;;4.97;;
48006;SDS011;33771;48.180;11.400;2022-09-21T07:45:57;13.23;;;5.37;;
48006;SDS011;33771;48.180;11.400;2022-09-21T07:48:23;7.63;;;5.07;;
48006;SDS011;33771;48.180;11.400;2022-09-21T07:50:49;18.80;;;5.47;;
48006;SDS011;33771;48.180;11.400;2022-09-21T07:53:14;10.10;;;5.90;;
48006;SDS011;33771;48.180;11.400;2022-09-21T07:55:41;11.17;;;5.13;;
48006;SDS011;33771;48.180;11.400;2022-09-21T07:58:07;18.77;;;5.60;;
48006;SDS011;33771;48.180;11.400;2022-09-21T08:00:51;11.60;;;4.63;;
48006;SDS011;33771;48.180;11.400;2022-09-21T08:03:17;7.23;;;4.23;;
48006;SDS011;33771;48.180;11.400;2022-09-21T08:05:42;10.53;;;4.17;;
48006;SDS011;33771;48.180;11.400;2022-09-21T08:08:08;12.57;;;5.00;;
48006;SDS011;33771;48.180;11.400;2022-09-21T08:10:34;12.53;;;4.50;;
48006;SDS011;33771;48.180;11.400;2022-09-21T08:13:00;11.40;;;4.07;;
48006;SDS011;33771;48.180;11.400;2022-09-21T08:15:26;7.23;;;3.60;;
48006;SDS011;33771;48.180;11.400;2022-09-21T08:17:52;9.47;;;3.87;;
48006;SDS011;33771;48.180;11.400;2022-09-21T08:20:18;6.93;;;3.33;;
48006;SDS011;33771;48.180;11.400;2022-09-21T08:22:44;6.80;;;3.20;;
48006;SDS011;33771;48.180;11.400;2022-09-21T08:25:10;6.40;;;3.17;;
48006;SDS011;33771;48.180;11.400;2022-09-21T08:27:35;8.33;;;4.17;;
48006;SDS011;33771;48.180;11.400;2022-09-21T08:30:02;9.00;;;3.47;;
48006;SDS011;33771;48.180;11.400;2022-09-21T08:32:28;6.15;;;2.95;;
48006;SDS011;33771;48.180;11.400;2022-09-21T08:34:55;5.80;;;2.72;;
48006;SDS011;33771;48.180;11.400;2022-09-21T08:37:20;6.18;;;3.25;;
48006;SDS011;33771;48.180;11.400;2022-09-21T08:39:46;6.75;;;3.92;;
48006;SDS011;33771;48.180;11.400;2022-09-21T08:45:05;6.05;;;3.63;;
48006;SDS011;33771;48.180;11.400;2022-09-21T08:52:53;6.88;;;3.97;;
48006;SDS011;33771;48.180;11.400;2022-09-21T08:55:25;10.07;;;3.80;;
48006;SDS011;33771;48.180;11.400;2022-09-21T08:57:51;6.28;;;3.78;;
48006;SDS011;33771;48.180;11.400;2022-09-21T09:00:17;7.82;;;3.85;;
48006;SDS011;33771;48.180;11.400;2022-09-21T09:09:10;8.15;;;2.85;;
48006;SDS011;33771;48.180;11.400;2022-09-21T09:19:54;5.07;;;2.25;;
48006;SDS011;33771;48.180;11.400;2022-09-21T09:22:26;4.30;;;2.28;;
48006;SDS011;33771;48.180;11.400;2022-09-21T09:24:59;8.90;;;3.00;;
48006;SDS011;33771;48.180;11.400;2022-09-21T09:27:33;6.65;;;1.88;;
48006;SDS011;33771;48.180;11.400;2022-09-21T09:32:52;4.82;;;1.70;;
48006;SDS011;33771;48.180;11.400;2022-09-21T09:38:16;4.28;;;1.52;;
48006;SDS011;33771;48.180;11.400;2022-09-21T09:41:07;5.72;;;2.20;;
48006;SDS011;33771;48.180;11.400;2022-09-21T09:52:25;2.42;;;1.27;;
48006;SDS011;33771;48.180;11.400;2022-09-21T09:54:51;2.50;;;1.13;;
48006;SDS011;33771;48.180;11.400;2022-09-21T09:57:19;2.97;;;1.10;;
48006;SDS011;33771;48.180;11.400;2022-09-21T09:59:54;3.90;;;1.48;;
48006;SDS011;33771;48.180;11.400;2022-09-21T10:02:28;2.55;;;1.10;;
48006;SDS011;33771;48.180;11.400;2022-09-21T10:13:04;3.85;;;0.90;;
48006;SDS011;33771;48.180;11.400;2022-09-21T10:15:40;3.45;;;1.02;;
48006;SDS011;33771;48.180;11.400;2022-09-21T10:21:01;2.80;;;1.10;;
48006;SDS011;33771;48.180;11.400;2022-09-21T10:23:30;2.88;;;1.00;;
48006;SDS011;33771;48.180;11.400;2022-09-21T10:25:57;3.33;;;0.90;;
48006;SDS011;33771;48.180;11.400;2022-09-21T10:28:35;1.40;;;0.77;;
48006;SDS011;33771;48.180;11.400;2022-09-21T10:36:36;2.50;;;0.98;;
48006;SDS011;33771;48.180;11.400;2022-09-21T10:39:19;2.03;;;0.95;;
48006;SDS011;33771;48.180;11.400;2022-09-21T10:41:47;2.63;;;1.10;;
48006;SDS011;33771;48.180;11.400;2022-09-21T10:44:18;1.98;;;1.02;;
48006;SDS011;33771;48.180;11.400;2022-09-21T10:46:47;4.25;;;1.10;;
48006;SDS011;33771;48.180;11.400;2022-09-21T10:49:25;1.80;;;1.10;;
48006;SDS011;33771;48.180;11.400;2022-09-21T10:51:53;6.53;;;1.30;;
48006;SDS011;33771;48.180;11.400;2022-09-21T10:54:22;4.78;;;0.98;;
48006;SDS011;33771;48.180;11.400;2022-09-21T10:56:52;2.53;;;1.15;;
48006;SDS011;33771;48.180;11.400;2022-09-21T10:59:25;2.28;;;0.95;;
48006;SDS011;33771;48.180;11.400;2022-09-21T11:01:57;1.88;;;1.02;;
48006;SDS011;33771;48.180;11.400;2022-09-21T11:07:14;3.38;;;0.93;;
48006;SDS011;33771;48.180;11.400;2022-09-21T11:09:46;1.92;;;0.90;;
48006;SDS011;33771;48.180;11.400;2022-09-21T11:15:14;2.85;;;1.05;;
48006;SDS011;33771;48.180;11.400;2022-09-21T11:18:02;2.92;;;1.10;;
48006;SDS011;33771;48.180;11.400;2022-09-21T11:25:59;3.22;;;1.05;;
48006;SDS011;33771;48.180;11.400;2022-09-21T11:28:50;1.90;;;0.90;;
48006;SDS011;33771;48.180;11.400;2022-09-21T11:31:48;6.05;;;1.98;;
48006;SDS011;33771;48.180;11.400;2022-09-21T11:37:26;4.97;;;2.05;;
48006;SDS011;33771;48.180;11.400;2022-09-21T11:40:21;3.45;;;1.48;;
48006;SDS011;33771;48.180;11.400;2022-09-21T11:54:39;2.73;;;0.93;;
48006;SDS011;33771;48.180;11.400;2022-09-21T12:00:18;2.33;;;0.90;;
48006;SDS011;33771;48.180;11.400;2022-09-21T12:02:50;3.40;;;1.13;;
48006;SDS011;33771;48.180;11.400;2022-09-21T12:05:32;2.10;;;1.00;;
48006;SDS011;33771;48.180;11.400;2022-09-21T12:08:33;4.20;;;1.20;;
48006;SDS011;33771;48.180;11.400;2022-09-21T12:13:57;1.88;;;1.00;;
48006;SDS011;33771;48.180;11.400;2022-09-21T12:22:14;1.58;;;0.93;;
48006;SDS011;33771;48.180;11.400;2022-09-21T12:25:18;1.70;;;1.00;;
48006;SDS011;33771;48.180;11.400;2022-09-21T12:30:42;1.52;;;0.90;;
48006;SDS011;33771;48.180;11.400;2022-09-21T12:36:11;5.88;;;1.00;;
48006;SDS011;33771;48.180;11.400;2022-09-21T12:44:17;2.10;;;1.10;;
48006;SDS011;33771;48.180;11.400;2022-09-21T12:47:03;1.50;;;0.90;;
48006;SDS011;33771;48.180;11.400;2022-09-21T12:49:42;1.67;;;0.90;;
48006;SDS011;33771;48.180;11.400;2022-09-21T12:54:44;1.80;;;0.80;;
48006;SDS011;33771;48.180;11.400;2022-09-21T12:57:28;2.65;;;1.10;;
48006;SDS011;33771;48.180;11.400;2022-09-21T13:00:15;1.80;;;1.10;;
48006;SDS011;33771;48.180;11.400;2022-09-21T13:08:36;2.83;;;0.88;;
48006;SDS011;33771;48.180;11.400;2022-09-21T13:11:06;2.20;;;1.08;;
48006;SDS011;33771;48.180;11.400;2022-09-21T13:13:38;1.75;;;0.90;;
48006;SDS011;33771;48.180;11.400;2022-09-21T13:19:22;1.75;;;0.80;;
48006;SDS011;33771;48.180;11.400;2022-09-21T13:22:08;1.67;;;0.77;;
48006;SDS011;33771;48.180;11.400;2022-09-21T13:24:57;2.80;;;0.90;;
48006;SDS011;33771;48.180;11.400;2022-09-21T13:36:34;1.77;;;0.80;;
48006;SDS011;33771;48.180;11.400;2022-09-21T13:39:11;3.03;;;0.88;;
48006;SDS011;33771;48.180;11.400;2022-09-21T13:41:44;1.95;;;0.80;;
48006;SDS011;33771;48.180;11.400;2022-09-21T13:44:20;1.77;;;0.80;;
48006;SDS011;33771;48.180;11.400;2022-09-21T13:47:04;1.67;;;0.90;;
48006;SDS011;33771;48.180;11.400;2022-09-21T13:49:37;3.42;;;0.90;;
48006;SDS011;33771;48.180;11.400;2022-09-21T14:00:00;2.55;;;0.70;;
48006;SDS011;33771;48.180;11.400;2022-09-21T14:02:31;2.97;;;1.15;;
48006;SDS011;33771;48.180;11.400;2022-09-21T14:05:18;1.33;;;0.80;;
48006;SDS011;33771;48.180;11.400;2022-09-21T14:07:52;2.00;;;1.10;;
48006;SDS011;33771;48.180;11.400;2022-09-21T14:10:24;2.25;;;1.10;;
48006;SDS011;33771;48.180;11.400;2022-09-21T14:12:53;2.53;;;1.25;;
48006;SDS011;33771;48.180;11.400;2022-09-21T14:17:44;4.53;;;1.42;;
48006;SDS011;33771;48.180;11.400;2022-09-21T14:20:33;2.08;;;1.13;;
48006;SDS011;33771;48.180;11.400;2022-09-21T14:25:55;4.05;;;1.05;;
48006;SDS011;33771;48.180;11.400;2022-09-21T14:28:32;2.45;;;0.90;;
48006;SDS011;33771;48.180;11.400;2022-09-21T14:31:07;1.80;;;0.80;;
48006;SDS011;33771;48.180;11.400;2022-09-21T14:33:52;0.93;;;0.70;;
48006;SDS011;33771;48.180;11.400;2022-09-21T14:36:41;2.03;;;0.85;;
48006;SDS011;33771;48.180;11.400;2022-09-21T14:39:30;3.90;;;0.82;;
48006;SDS011;33771;48.180;11.400;2022-09-21T14:42:06;2.97;;;1.23;;
48006;SDS011;33771;48.180;11.400;2022-09-21T14:44:44;3.83;;;0.77;;
48006;SDS011;33771;48.180;11.400;2022-09-21T14:53:14;2.92;;;0.85;;
48006;SDS011;33771;48.180;11.400;2022-09-21T14:56:00;1.83;;;0.90;;
48006;SDS011;33771;48.180;11.400;2022-09-21T14:58:41;2.13;;;0.80;;
48006;SDS011;33771;48.180;11.400;2022-09-21T15:06:50;1.77;;;0.80;;
48006;SDS011;33771;48.180;11.400;2022-09-21T15:10:01;1.55;;;0.77;;
48006;SDS011;33771;48.180;11.400;2022-09-21T15:13:01;2.00;;;0.82;;
48006;SDS011;33771;48.180;11.400;2022-09-21T15:15:37;0.80;;;0.80;;
48006;SDS011;33771;48.180;11.400;2022-09-21T15:18:16;1.63;;;0.90;;
48006;SDS011;33771;48.180;11.400;2022-09-21T15:20:54;2.33;;;0.95;;
48006;SDS011;33771;48.180;11.400;2022-09-21T15:23:25;1.60;;;0.90;;
48006;SDS011;33771;48.180;11.400;2022-09-21T15:25:59;2.20;;;0.90;;
48006;SDS011;33771;48.180;11.400;2022-09-21T15:28:48;1.80;;;0.80;;
48006;SDS011;33771;48.180;11.400;2022-09-21T15:31:15;1.10;;;0.90;;
48006;SDS011;33771;48.180;11.400;2022-09-21T15:33:41;2.20;;;1.00;;
48006;SDS011;33771;48.180;11.400;2022-09-21T15:36:10;1.92;;;0.90;;
48006;SDS011;33771;48.180;11.400;2022-09-21T15:38:36;1.20;;;0.75;;
48006;SDS011;33771;48.180;11.400;2022-09-21T15:41:03;1.33;;;0.80;;
48006;SDS011;33771;48.180;11.400;2022-09-21T15:43:30;2.85;;;0.73;;
48006;SDS011;33771;48.180;11.400;2022-09-21T15:46:02;1.90;;;0.70;;
48006;SDS011;33771;48.180;11.400;2022-09-21T15:48:39;3.55;;;1.00;;
48006;SDS011;33771;48.180;11.400;2022-09-21T15:51:13;1.92;;;0.90;;
48006;SDS011;33771;48.180;11.400;2022-09-21T15:53:48;1.65;;;0.90;;
48006;SDS011;33771;48.180;11.400;2022-09-21T15:56:24;1.65;;;0.90;;
48006;SDS011;33771;48.180;11.400;2022-09-21T15:58:57;1.75;;;0.77;;
48006;SDS011;33771;48.180;11.400;2022-09-21T16:01:31;1.75;;;0.82;;
48006;SDS011;33771;48.180;11.400;2022-09-21T16:04:04;1.52;;;0.98;;
48006;SDS011;33771;48.180;11.400;2022-09-21T16:06:36;1.35;;;0.90;;
48006;SDS011;33771;48.180;11.400;2022-09-21T16:11:53;2.47;;;1.10;;
48006;SDS011;33771;48.180;11.400;2022-09-21T16:14:19;1.63;;;1.00;;
48006;SDS011;33771;48.180;11.400;2022-09-21T16:17:05;2.35;;;1.20;;
48006;SDS011;33771;48.180;11.400;2022-09-21T16:22:11;3.55;;;1.25;;
48006;SDS011;33771;48.180;11.400;2022-09-21T16:24:45;1.70;;;1.10;;
48006;SDS011;33771;48.180;11.400;2022-09-21T16:27:18;1.30;;;1.00;;
48006;SDS011;33771;48.180;11.400;2022-09-21T16:29:46;1.30;;;0.90;;
48006;SDS011;33771;48.180;11.400;2022-09-21T16:34:45;1.90;;;1.17;;
48006;SDS011;33771;48.180;11.400;2022-09-21T16:42:19;1.33;;;0.90;;
48006;SDS011;33771;48.180;11.400;2022-09-21T16:44:46;1.38;;;1.00;;
48006;SDS011;33771;48.180;11.400;2022-09-21T16:47:13;2.13;;;1.17;;
48006;SDS011;33771;48.180;11.400;2022-09-21T16:49:42;5.43;;;1.50;;
48006;SDS011;33771;48.180;11.400;2022-09-21T16:52:07;2.22;;;1.20;;
48006;SDS011;33771;48.180;11.400;2022-09-21T16:54:33;3.72;;;1.27;;
48006;SDS011;33771;48.180;11.400;2022-09-21T16:57:01;2.92;;;1.13;;
48006;SDS011;33771;48.180;11.400;2022-09-21T16:59:28;2.50;;;1.30;;
48006;SDS011;33771;48.180;11.400;2022-09-21T17:01:55;6.47;;;3.35;;
48006;SDS011;33771;48.180;11.400;2022-09-21T17:04:22;5.55;;;2.83;;
48006;SDS011;33771;48.180;11.400;2022-09-21T17:06:50;3.17;;;1.60;;
48006;SDS011;33771;48.180;11.400;2022-09-21T17:09:21;5.10;;;2.60;;
48006;SDS011;33771;48.180;11.400;2022-09-21T17:11:49;5.75;;;2.72;;
48006;SDS011;33771;48.180;11.400;2022-09-21T17:14:16;5.82;;;3.17;;
48006;SDS011;33771;48.180;11.400;2022-09-21T17:16:47;5.13;;;3.20;;
48006;SDS011;33771;48.180;11.400;2022-09-21T17:19:15;6.00;;;2.83;;
48006;SDS011;33771;48.180;11.400;2022-09-21T17:21:42;4.25;;;1.70;;
48006;SDS011;33771;48.180;11.400;2022-09-21T17:24:09;3.88;;;2.00;;
48006;SDS011;33771;48.180;11.400;2022-09-21T17:26:35;3.42;;;1.98;;
48006;SDS011;33771;48.180;11.400;2022-09-21T17:29:01;4.80;;;2.25;;
48006;SDS011;33771;48.180;11.400;2022-09-21T17:31:29;3.63;;;2.20;;
48006;SDS011;33771;48.180;11.400;2022-09-21T17:33:56;4.50;;;2.83;;
48006;SDS011;33771;48.180;11.400;2022-09-21T17:36:23;5.22;;;2.85;;
48006;SDS011;33771;48.180;11.400;2022-09-21T17:38:48;6.68;;;3.22;;
48006;SDS011;33771;48.180;11.400;2022-09-21T17:41:24;5.05;;;3.85;;
48006;SDS011;33771;48.180;11.400;2022-09-21T17:44:07;6.05;;;3.25;;
48006;SDS011;33771;48.180;11.400;2022-09-21T17:49:16;6.93;;;3.80;;
48006;SDS011;33771;48.180;11.400;2022-09-21T17:51:42;9.70;;;3.75;;
48006;SDS011;33771;48.180;11.400;2022-09-21T17:54:27;6.65;;;4.22;;
48006;SDS011;33771;48.180;11.400;2022-09-21T17:56:55;7.53;;;3.97;;
48006;SDS011;33771;48.180;11.400;2022-09-21T17:59:32;7.07;;;3.92;;
48006;SDS011;33771;48.180;11.400;2022-09-21T18:02:00;7.78;;;4.22;;
48006;SDS011;33771;48.180;11.400;2022-09-21T18:04:29;7.28;;;4.22;;
48006;SDS011;33771;48.180;11.400;2022-09-21T18:06:58;6.63;;;3.65;;
48006;SDS011;33771;48.180;11.400;2022-09-21T18:09:24;4.68;;;3.20;;
48006;SDS011;33771;48.180;11.400;2022-09-21T18:15:07;9.13;;;2.70;;
48006;SDS011;33771;48.180;11.400;2022-09-21T18:20:39;5.70;;;3.20;;
48006;SDS011;33771;48.180;11.400;2022-09-21T18:25:53;4.47;;;3.13;;